createdAt,value
2023-07-24T00:00:48.330Z,7.82
2023-07-24T00:03:14.982Z,9.52
2023-07-24T00:05:41.564Z,6.67
2023-07-24T00:08:08.215Z,8.13
2023-07-24T00:10:34.855Z,6.55
2023-07-24T00:13:02.367Z,7.85
2023-07-24T00:15:29.038Z,8.07
2023-07-24T00:17:55.697Z,6.90
2023-07-24T00:20:22.459Z,6.32
2023-07-24T00:22:49.041Z,7.40
2023-07-24T00:25:15.641Z,9.68
2023-07-24T00:27:42.214Z,9.43
2023-07-24T00:30:09.309Z,7.17
2023-07-24T00:32:35.970Z,7.88
2023-07-24T00:35:02.475Z,6.28
2023-07-24T00:37:28.985Z,8.60
2023-07-24T00:39:55.514Z,7.80
2023-07-24T00:42:22.000Z,6.63
2023-07-24T00:44:48.588Z,8.70
2023-07-24T00:47:15.336Z,8.50
2023-07-24T00:49:42.076Z,11.57
2023-07-24T00:52:09.376Z,8.60
2023-07-24T00:54:36.288Z,10.77
2023-07-24T00:57:04.637Z,10.73
2023-07-24T00:59:31.470Z,8.25
2023-07-24T01:01:58.016Z,8.07
2023-07-24T01:04:24.563Z,9.20
2023-07-24T01:06:51.194Z,11.50
2023-07-24T01:09:17.761Z,7.57
2023-07-24T01:11:49.246Z,7.55
2023-07-24T01:14:33.984Z,9.00
2023-07-24T01:17:01.555Z,7.90
2023-07-24T01:19:31.168Z,8.63
2023-07-24T01:22:26.971Z,8.00
2023-07-24T01:25:20.320Z,7.68
2023-07-24T01:27:47.397Z,8.38
2023-07-24T01:30:16.976Z,9.35
2023-07-24T01:32:43.567Z,8.63
2023-07-24T01:35:10.286Z,9.13
2023-07-24T01:37:40.405Z,9.63
2023-07-24T01:40:11.789Z,8.75
2023-07-24T01:42:39.072Z,12.93
2023-07-24T01:45:06.358Z,11.77
2023-07-24T01:47:33.918Z,13.25
2023-07-24T01:50:00.532Z,11.73
2023-07-24T01:52:27.308Z,10.93
2023-07-24T01:54:53.878Z,16.67
2023-07-24T01:57:20.475Z,14.20
2023-07-24T01:59:47.095Z,15.00
2023-07-24T02:02:13.660Z,12.88
2023-07-24T02:04:40.181Z,13.50
2023-07-24T02:07:06.671Z,14.32
2023-07-24T02:09:33.203Z,12.30
2023-07-24T02:11:59.771Z,13.48
2023-07-24T02:14:27.869Z,13.05
2023-07-24T02:16:54.461Z,15.15
2023-07-24T02:19:21.015Z,11.18
2023-07-24T02:21:47.559Z,12.80
2023-07-24T02:24:14.235Z,11.90
2023-07-24T02:26:40.711Z,11.55
2023-07-24T02:29:07.238Z,12.25
2023-07-24T02:31:35.362Z,13.80
2023-07-24T02:34:01.917Z,12.33
2023-07-24T02:36:28.659Z,11.63
2023-07-24T02:38:55.371Z,12.10
2023-07-24T02:41:21.874Z,13.15
2023-07-24T02:43:48.443Z,11.25
2023-07-24T02:46:14.979Z,10.37
2023-07-24T02:48:41.556Z,12.90
2023-07-24T02:51:08.155Z,9.90
2023-07-24T02:53:34.695Z,15.25
2023-07-24T02:56:03.440Z,11.40
2023-07-24T02:58:30.053Z,8.53
2023-07-24T03:01:04.263Z,12.63
2023-07-24T03:03:30.923Z,9.82
2023-07-24T03:05:57.643Z,10.05
2023-07-24T03:08:24.156Z,10.27
2023-07-24T03:10:50.822Z,10.60
2023-07-24T03:13:17.328Z,12.18
2023-07-24T03:15:43.829Z,8.88
2023-07-24T03:18:10.404Z,10.48
2023-07-24T03:20:37.000Z,11.30
2023-07-24T03:23:03.765Z,9.57
2023-07-24T03:25:32.564Z,10.75
2023-07-24T03:27:59.076Z,9.52
2023-07-24T03:30:25.597Z,12.52
2023-07-24T03:32:52.249Z,11.23
2023-07-24T03:35:18.872Z,13.43
2023-07-24T03:37:45.394Z,15.43
2023-07-24T03:40:12.859Z,12.05
2023-07-24T03:42:39.370Z,13.65
2023-07-24T03:45:06.885Z,13.27
2023-07-24T03:47:33.591Z,15.60
2023-07-24T03:50:00.314Z,12.18
2023-07-24T03:52:27.102Z,18.15
2023-07-24T03:54:53.707Z,15.80
2023-07-24T03:57:20.272Z,12.68
2023-07-24T03:59:46.791Z,16.67
2023-07-24T04:02:13.412Z,15.90
2023-07-24T04:04:39.927Z,17.88
2023-07-24T04:07:06.789Z,14.40
2023-07-24T04:09:33.581Z,16.33
2023-07-24T04:12:00.310Z,14.67
2023-07-24T04:14:26.901Z,19.30
2023-07-24T04:16:53.758Z,18.70
2023-07-24T04:19:20.403Z,20.77
2023-07-24T04:21:46.914Z,17.27
2023-07-24T04:24:13.507Z,20.27
2023-07-24T04:26:41.030Z,18.35
2023-07-24T04:29:08.042Z,21.67
2023-07-24T04:31:34.758Z,19.50
2023-07-24T04:34:01.304Z,21.60
2023-07-24T04:36:28.033Z,23.07
2023-07-24T04:38:54.817Z,21.75
2023-07-24T04:41:21.344Z,25.05
2023-07-24T04:43:47.961Z,25.63
2023-07-24T04:46:14.533Z,25.58
2023-07-24T04:48:41.094Z,24.53
2023-07-24T04:51:07.800Z,25.45
2023-07-24T04:53:34.435Z,24.38
2023-07-24T04:56:01.009Z,26.80
2023-07-24T04:58:27.581Z,25.20
2023-07-24T05:00:53.999Z,24.17
2023-07-24T05:03:21.083Z,26.63
2023-07-24T05:05:56.805Z,23.52
2023-07-24T05:08:24.054Z,25.88
2023-07-24T05:11:00.284Z,20.40
2023-07-24T05:13:27.678Z,26.70
2023-07-24T05:15:54.399Z,25.95
2023-07-24T05:18:21.129Z,22.75
2023-07-24T05:20:48.809Z,23.45
2023-07-24T05:23:15.889Z,20.95
2023-07-24T05:25:42.730Z,19.63
2023-07-24T05:28:10.205Z,23.17
2023-07-24T05:30:36.951Z,25.92
2023-07-24T05:33:03.629Z,21.35
2023-07-24T05:35:30.169Z,24.95
2023-07-24T05:37:56.831Z,22.73
2023-07-24T05:40:23.358Z,25.90
2023-07-24T05:42:49.885Z,23.65
2023-07-24T05:45:16.665Z,21.55
2023-07-24T05:47:43.245Z,23.42
2023-07-24T05:50:10.101Z,35.47
2023-07-24T05:52:36.658Z,22.77
2023-07-24T05:55:04.250Z,28.98
2023-07-24T05:57:30.836Z,26.77
2023-07-24T05:59:57.473Z,29.63
2023-07-24T06:02:24.013Z,25.47
2023-07-24T06:04:50.619Z,25.83
2023-07-24T06:07:17.148Z,22.73
2023-07-24T06:09:43.744Z,24.52
2023-07-24T06:12:10.302Z,24.50
2023-07-24T06:14:36.902Z,20.43
2023-07-24T06:17:03.638Z,18.00
2023-07-24T06:19:30.338Z,23.13
2023-07-24T06:21:57.026Z,16.48
2023-07-24T06:24:24.836Z,18.52
2023-07-24T06:26:51.509Z,24.33
2023-07-24T06:29:18.082Z,21.67
2023-07-24T06:31:44.724Z,21.17
2023-07-24T06:34:11.332Z,24.00
2023-07-24T06:36:37.924Z,24.02
2023-07-24T06:39:04.456Z,20.47
2023-07-24T06:41:31.136Z,24.30
2023-07-24T06:43:57.630Z,23.55
2023-07-24T06:46:24.296Z,18.98
2023-07-24T06:48:50.835Z,21.95
2023-07-24T06:51:17.381Z,20.03
2023-07-24T06:53:43.946Z,15.73
2023-07-24T06:56:10.599Z,24.13
2023-07-24T06:58:37.036Z,19.77
2023-07-24T07:01:07.872Z,17.40
2023-07-24T07:03:37.625Z,13.90
2023-07-24T07:06:04.595Z,14.57
2023-07-24T07:08:31.513Z,14.15
2023-07-24T07:10:58.884Z,13.13
2023-07-24T07:13:25.492Z,14.27
2023-07-24T07:15:52.126Z,14.20
2023-07-24T07:18:19.024Z,16.23
2023-07-24T07:20:50.389Z,17.65
2023-07-24T07:23:17.420Z,22.38
2023-07-24T07:25:46.220Z,15.85
2023-07-24T07:28:13.868Z,18.17
2023-07-24T07:30:42.062Z,17.90
2023-07-24T07:33:09.810Z,15.50
2023-07-24T07:35:37.204Z,17.98
2023-07-24T07:38:04.429Z,20.17
2023-07-24T07:40:31.117Z,16.77
2023-07-24T07:42:58.299Z,16.13
2023-07-24T07:45:25.265Z,17.48
2023-07-24T07:47:54.378Z,17.67
2023-07-24T07:50:21.320Z,14.25
2023-07-24T07:52:52.114Z,16.43
2023-07-24T07:55:19.759Z,16.27
2023-07-24T07:57:46.315Z,14.70
2023-07-24T08:00:13.533Z,13.38
2023-07-24T08:02:42.997Z,16.33
2023-07-24T08:05:17.869Z,14.10
2023-07-24T08:07:46.855Z,13.43
2023-07-24T08:10:16.073Z,16.63
2023-07-24T08:12:43.737Z,14.55
2023-07-24T08:15:10.763Z,17.40
2023-07-24T08:17:37.332Z,15.20
2023-07-24T08:20:04.551Z,15.73
2023-07-24T08:22:31.115Z,16.10
2023-07-24T08:24:57.769Z,19.40
2023-07-24T08:27:24.260Z,15.23
2023-07-24T08:29:54.139Z,18.20
2023-07-24T08:32:21.379Z,20.40
2023-07-24T08:34:48.308Z,19.55
2023-07-24T08:37:14.883Z,21.92
2023-07-24T08:39:42.388Z,26.23
2023-07-24T08:42:10.783Z,30.20
2023-07-24T08:44:38.163Z,26.00
2023-07-24T08:47:07.698Z,25.95
2023-07-24T08:49:35.893Z,27.42
2023-07-24T08:52:02.876Z,21.38
2023-07-24T08:54:31.336Z,20.83
2023-07-24T08:56:57.906Z,23.17
2023-07-24T08:59:24.518Z,18.27
2023-07-24T09:01:51.802Z,14.48
2023-07-24T09:04:18.372Z,17.38
2023-07-24T09:06:46.488Z,19.37
2023-07-24T09:09:17.484Z,15.57
2023-07-24T09:11:51.457Z,17.25
2023-07-24T09:14:25.277Z,13.80
2023-07-24T09:17:12.435Z,17.80
2023-07-24T09:19:39.536Z,15.37
2023-07-24T09:22:16.598Z,19.67
2023-07-24T09:24:56.525Z,20.55
2023-07-24T09:27:27.792Z,21.45
2023-07-24T09:29:55.576Z,15.48
2023-07-24T09:32:27.471Z,21.20
2023-07-24T09:34:57.491Z,15.88
2023-07-24T09:37:27.672Z,16.52
2023-07-24T09:39:54.579Z,16.40
2023-07-24T09:42:52.971Z,15.43
2023-07-24T09:45:26.539Z,15.00
2023-07-24T09:47:59.417Z,16.98
2023-07-24T09:50:29.797Z,13.20
2023-07-24T09:52:58.029Z,20.70
2023-07-24T09:55:30.936Z,11.05
2023-07-24T09:57:59.690Z,15.33
2023-07-24T10:00:26.705Z,16.50
2023-07-24T10:02:53.845Z,13.48
2023-07-24T10:05:20.766Z,12.63
2023-07-24T10:07:48.381Z,14.60
2023-07-24T10:10:16.425Z,15.87
2023-07-24T10:12:43.471Z,12.20
2023-07-24T10:15:10.947Z,13.20
2023-07-24T10:17:41.428Z,13.77
2023-07-24T10:20:11.431Z,16.42
2023-07-24T10:22:42.451Z,20.60
2023-07-24T10:25:12.581Z,14.13
2023-07-24T10:27:50.426Z,14.80
2023-07-24T10:30:33.014Z,14.00
2023-07-24T10:33:20.943Z,12.30
2023-07-24T10:35:55.821Z,14.03
2023-07-24T10:38:36.935Z,15.75
2023-07-24T10:41:07.662Z,12.85
2023-07-24T10:43:59.684Z,11.82
2023-07-24T10:46:41.104Z,13.73
2023-07-24T10:49:09.074Z,10.77
2023-07-24T10:51:38.498Z,10.25
2023-07-24T10:54:06.660Z,11.60
2023-07-24T10:56:33.414Z,13.73
2023-07-24T10:59:06.455Z,13.05
2023-07-24T11:01:34.613Z,15.30
2023-07-24T11:04:02.359Z,18.05
2023-07-24T11:06:29.142Z,16.25
2023-07-24T11:08:58.002Z,26.80
2023-07-24T11:11:32.034Z,22.50
2023-07-24T11:13:59.151Z,52.30
2023-07-24T11:16:25.838Z,37.55
2023-07-24T11:18:56.617Z,22.00
2023-07-24T11:21:24.670Z,19.15
2023-07-24T11:23:53.591Z,42.70
2023-07-24T11:26:22.159Z,21.53
2023-07-24T11:28:49.500Z,14.32
2023-07-24T11:31:16.455Z,14.32
2023-07-24T11:33:44.248Z,13.75
2023-07-24T11:36:11.303Z,12.77
2023-07-24T11:38:39.901Z,11.83
2023-07-24T11:41:06.942Z,13.60
2023-07-24T11:43:33.580Z,14.57
2023-07-24T11:46:00.232Z,10.73
2023-07-24T11:48:26.802Z,17.50
2023-07-24T11:50:58.567Z,12.90
2023-07-24T11:53:30.700Z,11.30
2023-07-24T11:55:59.270Z,16.73
2023-07-24T11:58:30.125Z,14.30
2023-07-24T12:00:57.264Z,16.45
2023-07-24T12:03:27.257Z,11.13
2023-07-24T12:05:54.407Z,16.60
2023-07-24T12:08:24.891Z,15.02
2023-07-24T12:10:51.741Z,13.15
2023-07-24T12:13:20.045Z,10.52
2023-07-24T12:15:48.705Z,12.23
2023-07-24T12:18:16.509Z,12.02
2023-07-24T12:20:43.122Z,11.18
2023-07-24T12:23:09.694Z,14.45
2023-07-24T12:25:36.285Z,22.20
2023-07-24T12:28:02.892Z,11.13
2023-07-24T12:30:29.453Z,11.15
2023-07-24T12:32:56.075Z,12.35
2023-07-24T12:35:22.672Z,14.27
2023-07-24T12:37:49.321Z,14.18
2023-07-24T12:40:15.935Z,11.07
2023-07-24T12:42:42.743Z,9.23
2023-07-24T12:45:09.793Z,10.15
2023-07-24T12:47:36.332Z,11.32
2023-07-24T12:50:05.687Z,11.75
2023-07-24T12:52:34.148Z,13.87
2023-07-24T12:55:02.310Z,12.23
2023-07-24T12:57:29.789Z,13.02
2023-07-24T12:59:56.396Z,9.73
2023-07-24T13:02:23.021Z,12.70
2023-07-24T13:04:49.614Z,10.23
2023-07-24T13:07:16.337Z,9.80
2023-07-24T13:09:43.012Z,10.07
2023-07-24T13:12:10.171Z,10.55
2023-07-24T13:14:38.545Z,10.27
2023-07-24T13:17:06.893Z,8.67
2023-07-24T13:19:33.600Z,10.50
2023-07-24T13:22:00.199Z,11.52
2023-07-24T13:24:26.953Z,11.20
2023-07-24T13:26:53.507Z,8.80
2023-07-24T13:29:20.846Z,10.90
2023-07-24T13:31:52.120Z,10.45
2023-07-24T13:34:20.653Z,13.90
2023-07-24T13:36:50.605Z,14.80
2023-07-24T13:39:18.148Z,15.13
2023-07-24T13:41:44.834Z,10.10
2023-07-24T13:44:11.658Z,18.13
2023-07-24T13:46:40.474Z,13.82
2023-07-24T13:49:07.770Z,11.75
2023-07-24T13:51:34.500Z,10.88
2023-07-24T13:54:02.852Z,24.87
2023-07-24T13:56:32.394Z,15.55
2023-07-24T13:58:59.112Z,21.20
2023-07-24T14:01:25.978Z,23.75
2023-07-24T14:03:52.866Z,12.23
2023-07-24T14:06:19.869Z,13.63
2023-07-24T14:08:46.409Z,13.27
2023-07-24T14:11:12.960Z,11.45
2023-07-24T14:13:39.443Z,13.82
2023-07-24T14:16:06.074Z,10.18
2023-07-24T14:18:32.607Z,10.10
2023-07-24T14:21:00.783Z,13.10
2023-07-24T14:23:27.735Z,12.00
2023-07-24T14:25:54.248Z,14.07
2023-07-24T14:28:20.904Z,13.52
2023-07-24T14:30:48.588Z,10.70
2023-07-24T14:33:15.651Z,17.40
2023-07-24T14:35:42.244Z,17.92
2023-07-24T14:38:08.913Z,12.80
2023-07-24T14:40:35.674Z,13.35
2023-07-24T14:43:04.716Z,15.40
2023-07-24T14:45:33.189Z,13.60
2023-07-24T14:47:59.774Z,10.18
2023-07-24T14:50:26.457Z,10.60
2023-07-24T14:52:53.018Z,10.57
2023-07-24T14:55:19.652Z,13.47
2023-07-24T14:57:46.445Z,8.35
2023-07-24T15:00:13.558Z,19.52
2023-07-24T15:02:40.215Z,16.85
2023-07-24T15:05:07.030Z,13.65
2023-07-24T15:07:33.527Z,11.67
2023-07-24T15:10:00.001Z,10.35
2023-07-24T15:12:26.575Z,10.57
2023-07-24T15:14:53.082Z,12.60
2023-07-24T15:17:20.712Z,8.13
2023-07-24T15:19:47.345Z,17.43
2023-07-24T15:22:13.957Z,9.32
2023-07-24T15:24:43.453Z,16.30
2023-07-24T15:27:10.624Z,18.98
2023-07-24T15:29:38.000Z,20.45
2023-07-24T15:32:05.918Z,11.13
2023-07-24T15:34:32.928Z,13.43
2023-07-24T15:36:59.505Z,15.02
2023-07-24T15:39:26.167Z,10.55
2023-07-24T15:41:52.759Z,10.15
2023-07-24T15:44:19.360Z,8.57
2023-07-24T15:46:48.040Z,7.80
2023-07-24T15:49:15.189Z,7.57
2023-07-24T15:51:41.866Z,7.00
2023-07-24T15:54:11.099Z,8.15
2023-07-24T15:56:39.838Z,7.70
2023-07-24T15:59:06.637Z,14.38
2023-07-24T16:01:33.661Z,7.38
2023-07-24T16:04:00.742Z,8.18
2023-07-24T16:06:27.391Z,7.28
2023-07-24T16:08:54.114Z,7.73
2023-07-24T16:11:20.582Z,8.20
2023-07-24T16:13:47.254Z,11.07
2023-07-24T16:16:15.011Z,11.98
2023-07-24T16:18:42.356Z,10.70
2023-07-24T16:21:08.997Z,12.47
2023-07-24T16:23:35.829Z,9.73
2023-07-24T16:26:02.577Z,9.57
2023-07-24T16:28:29.523Z,8.10
2023-07-24T16:30:58.573Z,5.80
2023-07-24T16:33:25.674Z,6.20
2023-07-24T16:35:52.996Z,9.02
2023-07-24T16:38:19.819Z,8.25
2023-07-24T16:40:46.530Z,5.43
2023-07-24T16:43:13.259Z,7.15
2023-07-24T16:45:40.072Z,8.03
2023-07-24T16:48:07.320Z,8.88
2023-07-24T16:50:36.096Z,9.00
2023-07-24T16:53:03.432Z,5.47
2023-07-24T16:55:30.613Z,7.30
2023-07-24T16:57:57.660Z,6.37
2023-07-24T17:00:24.295Z,6.50
2023-07-24T17:02:50.889Z,8.10
2023-07-24T17:05:17.655Z,7.70
2023-07-24T17:07:44.302Z,6.28
2023-07-24T17:10:11.602Z,5.33
2023-07-24T17:12:38.172Z,6.00
2023-07-24T17:15:05.028Z,7.07
2023-07-24T17:17:31.641Z,7.25
2023-07-24T17:19:58.144Z,7.35
2023-07-24T17:22:24.666Z,6.63
2023-07-24T17:24:51.720Z,7.00
2023-07-24T17:27:18.462Z,7.28
2023-07-24T17:29:45.182Z,6.97
2023-07-24T17:32:13.098Z,7.22
2023-07-24T17:34:40.187Z,5.80
2023-07-24T17:37:06.734Z,10.00
2023-07-24T17:39:33.466Z,9.90
2023-07-24T17:41:59.987Z,7.93
2023-07-24T17:44:26.605Z,6.78
2023-07-24T17:46:53.472Z,6.97
2023-07-24T17:49:20.128Z,7.30
2023-07-24T17:51:46.719Z,8.25
2023-07-24T17:54:13.381Z,7.13
2023-07-24T17:56:40.126Z,7.97
2023-07-24T17:59:06.671Z,7.90
2023-07-24T18:01:35.068Z,10.13
2023-07-24T18:04:01.874Z,7.22
2023-07-24T18:06:28.529Z,6.78
2023-07-24T18:08:55.401Z,8.68
2023-07-24T18:11:21.945Z,10.67
2023-07-24T18:13:48.475Z,9.93
2023-07-24T18:16:17.215Z,6.68
2023-07-24T18:18:44.218Z,8.18
2023-07-24T18:21:10.754Z,8.95
2023-07-24T18:23:37.593Z,8.07
2023-07-24T18:26:04.208Z,6.07
2023-07-24T18:28:30.745Z,7.55
2023-07-24T18:30:57.346Z,6.63
2023-07-24T18:33:23.891Z,10.43
2023-07-24T18:35:53.400Z,6.17
2023-07-24T18:38:21.276Z,12.10
2023-07-24T18:40:48.077Z,5.00
2023-07-24T18:43:14.648Z,4.53
2023-07-24T18:45:41.916Z,7.53
2023-07-24T18:48:10.314Z,7.90
2023-07-24T18:50:36.824Z,6.30
2023-07-24T18:53:03.465Z,8.60
2023-07-24T18:55:30.090Z,8.95
2023-07-24T18:57:56.746Z,6.85
2023-07-24T19:00:23.318Z,6.00
2023-07-24T19:02:49.892Z,9.45
2023-07-24T19:05:16.558Z,11.07
2023-07-24T19:07:43.078Z,9.07
2023-07-24T19:10:11.246Z,10.07
2023-07-24T19:12:40.157Z,11.27
2023-07-24T19:15:09.981Z,8.13
2023-07-24T19:17:41.288Z,9.05
2023-07-24T19:20:10.009Z,8.20
2023-07-24T19:22:36.782Z,9.80
2023-07-24T19:25:03.581Z,7.93
2023-07-24T19:27:30.777Z,7.10
2023-07-24T19:30:02.719Z,7.20
2023-07-24T19:32:32.028Z,14.48
2023-07-24T19:34:58.711Z,11.10
2023-07-24T19:37:25.185Z,8.57
2023-07-24T19:39:51.680Z,9.00
2023-07-24T19:42:18.374Z,14.63
2023-07-24T19:44:44.866Z,9.73
2023-07-24T19:47:11.415Z,8.93
2023-07-24T19:49:41.930Z,7.60
2023-07-24T19:52:09.151Z,5.60
2023-07-24T19:54:36.110Z,9.25
2023-07-24T19:57:02.712Z,9.85
2023-07-24T19:59:29.205Z,8.52
2023-07-24T20:01:57.464Z,14.50
2023-07-24T20:04:24.443Z,9.68
2023-07-24T20:06:50.979Z,9.05
2023-07-24T20:09:17.664Z,10.00
2023-07-24T20:11:46.727Z,10.95
2023-07-24T20:14:14.694Z,11.77
2023-07-24T20:16:41.392Z,10.45
2023-07-24T20:19:08.144Z,7.18
2023-07-24T20:21:34.757Z,7.97
2023-07-24T20:24:13.988Z,7.38
2023-07-24T20:26:41.068Z,8.13
2023-07-24T20:29:07.708Z,9.55
2023-07-24T20:31:34.711Z,8.80
2023-07-24T20:34:01.626Z,11.27
2023-07-24T20:36:28.155Z,9.30
2023-07-24T20:38:54.729Z,13.27
2023-07-24T20:41:21.280Z,9.23
2023-07-24T20:43:47.974Z,10.82
2023-07-24T20:46:16.222Z,8.77
2023-07-24T20:48:43.554Z,7.07
2023-07-24T20:51:18.518Z,7.03
2023-07-24T20:53:45.298Z,6.72
2023-07-24T20:56:12.270Z,10.13
2023-07-24T20:58:38.777Z,13.05
2023-07-24T21:01:07.618Z,8.90
2023-07-24T21:03:34.602Z,11.93
2023-07-24T21:06:01.454Z,10.65
2023-07-24T21:08:28.072Z,9.05
2023-07-24T21:10:55.387Z,9.75
2023-07-24T21:13:22.250Z,9.05
2023-07-24T21:15:51.186Z,9.27
2023-07-24T21:18:18.852Z,5.85
2023-07-24T21:20:47.057Z,12.10
2023-07-24T21:23:15.348Z,8.80
2023-07-24T21:25:55.828Z,9.93
2023-07-24T21:28:23.896Z,11.47
2023-07-24T21:30:51.048Z,8.30
2023-07-24T21:33:18.590Z,9.90
2023-07-24T21:35:45.211Z,9.60
2023-07-24T21:38:13.806Z,10.05
2023-07-24T21:40:41.109Z,10.03
2023-07-24T21:43:08.856Z,7.97
2023-07-24T21:45:35.880Z,8.05
2023-07-24T21:48:06.026Z,9.10
2023-07-24T21:50:32.676Z,14.85
2023-07-24T21:52:59.424Z,12.53
2023-07-24T21:55:26.049Z,11.93
2023-07-24T21:57:52.522Z,11.48
2023-07-24T22:00:19.102Z,8.27
2023-07-24T22:02:45.733Z,12.75
2023-07-24T22:05:12.471Z,8.67
2023-07-24T22:07:38.910Z,25.77
2023-07-24T22:10:05.969Z,13.45
2023-07-24T22:12:33.839Z,13.82
2023-07-24T22:15:00.397Z,9.38
2023-07-24T22:17:28.973Z,17.73
2023-07-24T22:19:56.616Z,13.02
2023-07-24T22:22:23.910Z,11.00
2023-07-24T22:24:50.796Z,8.88
2023-07-24T22:27:17.505Z,12.05
2023-07-24T22:29:44.111Z,10.50
2023-07-24T22:32:10.911Z,15.68
2023-07-24T22:34:37.514Z,11.27
2023-07-24T22:37:04.429Z,10.00
2023-07-24T22:39:31.014Z,13.38
2023-07-24T22:42:00.351Z,12.43
2023-07-24T22:44:26.994Z,13.63
2023-07-24T22:46:53.614Z,11.55
2023-07-24T22:49:20.181Z,10.02
2023-07-24T22:51:46.734Z,9.35
2023-07-24T22:54:13.278Z,8.97
2023-07-24T22:56:44.865Z,13.60
2023-07-24T22:59:25.084Z,9.32
2023-07-24T23:01:56.289Z,15.93
2023-07-24T23:04:25.407Z,11.77
2023-07-24T23:06:53.391Z,8.60
2023-07-24T23:09:19.956Z,11.20
2023-07-24T23:11:46.488Z,14.75
2023-07-24T23:14:13.088Z,12.00
2023-07-24T23:16:39.611Z,12.82
2023-07-24T23:19:06.337Z,12.13
2023-07-24T23:21:33.266Z,10.35
2023-07-24T23:24:00.025Z,12.55
2023-07-24T23:26:26.507Z,11.57
2023-07-24T23:28:54.518Z,10.05
2023-07-24T23:31:21.320Z,9.87
2023-07-24T23:33:47.842Z,14.30
2023-07-24T23:36:14.424Z,11.48
2023-07-24T23:38:40.953Z,8.40
2023-07-24T23:41:08.099Z,14.18
2023-07-24T23:43:34.939Z,10.80
2023-07-24T23:46:01.710Z,8.85
2023-07-24T23:48:28.422Z,15.38
2023-07-24T23:50:54.983Z,15.00
2023-07-24T23:53:21.598Z,11.07
2023-07-24T23:55:48.227Z,11.33
2023-07-24T23:58:14.870Z,10.75
